sensor_id;sensor_type;location;lat;lon;timestamp;temperature;humidity
16838;DHT22;19510;54.486;9.046;2023-02-15T00:01:50;3.60;99.90
16838;DHT22;19510;54.486;9.046;2023-02-15T00:04:19;3.60;99.90
16838;DHT22;19510;54.486;9.046;2023-02-15T00:06:45;3.60;99.90
16838;DHT22;19510;54.486;9.046;2023-02-15T00:09:11;3.60;99.90
16838;DHT22;19510;54.486;9.046;2023-02-15T00:11:37;3.50;99.90
16838;DHT22;19510;54.486;9.046;2023-02-15T00:16:39;3.50;99.90
16838;DHT22;19510;54.486;9.046;2023-02-15T00:19:08;3.50;99.90
16838;DHT22;19510;54.486;9.046;2023-02-15T00:21:35;3.40;99.90
16838;DHT22;19510;54.486;9.046;2023-02-15T00:24:02;3.50;99.90
16838;DHT22;19510;54.486;9.046;2023-02-15T00:26:28;3.50;99.90
16838;DHT22;19510;54.486;9.046;2023-02-15T00:28:55;3.50;99.90
16838;DHT22;19510;54.486;9.046;2023-02-15T00:31:21;3.50;99.90
16838;DHT22;19510;54.486;9.046;2023-02-15T00:33:47;3.50;99.90
16838;DHT22;19510;54.486;9.046;2023-02-15T00:36:14;3.50;99.90
16838;DHT22;19510;54.486;9.046;2023-02-15T00:38:40;3.50;99.90
16838;DHT22;19510;54.486;9.046;2023-02-15T00:41:09;3.50;99.90
16838;DHT22;19510;54.486;9.046;2023-02-15T00:43:37;3.50;99.90
16838;DHT22;19510;54.486;9.046;2023-02-15T00:46:04;3.50;99.90
16838;DHT22;19510;54.486;9.046;2023-02-15T00:48:30;3.50;99.90
16838;DHT22;19510;54.486;9.046;2023-02-15T00:50:58;3.50;99.90
16838;DHT22;19510;54.486;9.046;2023-02-15T00:53:28;3.50;99.90
16838;DHT22;19510;54.486;9.046;2023-02-15T00:55:54;3.50;99.90
16838;DHT22;19510;54.486;9.046;2023-02-15T00:58:20;3.50;99.90
16838;DHT22;19510;54.486;9.046;2023-02-15T01:00:46;3.60;99.90
16838;DHT22;19510;54.486;9.046;2023-02-15T01:03:16;3.60;99.90
16838;DHT22;19510;54.486;9.046;2023-02-15T01:05:44;3.60;99.90
16838;DHT22;19510;54.486;9.046;2023-02-15T01:08:10;3.60;99.90
16838;DHT22;19510;54.486;9.046;2023-02-15T01:10:36;3.60;99.90
16838;DHT22;19510;54.486;9.046;2023-02-15T01:13:02;3.60;99.90
16838;DHT22;19510;54.486;9.046;2023-02-15T01:15:30;3.60;99.90
16838;DHT22;19510;54.486;9.046;2023-02-15T01:17:56;3.60;99.90
16838;DHT22;19510;54.486;9.046;2023-02-15T01:20:26;3.60;99.90
16838;DHT22;19510;54.486;9.046;2023-02-15T01:22:53;3.60;99.90
16838;DHT22;19510;54.486;9.046;2023-02-15T01:25:21;3.60;99.90
16838;DHT22;19510;54.486;9.046;2023-02-15T01:27:49;3.60;99.90
16838;DHT22;19510;54.486;9.046;2023-02-15T01:30:16;3.60;99.90
16838;DHT22;19510;54.486;9.046;2023-02-15T01:32:42;3.60;99.90
16838;DHT22;19510;54.486;9.046;2023-02-15T01:35:11;3.60;99.90
16838;DHT22;19510;54.486;9.046;2023-02-15T01:37:37;3.60;99.90
16838;DHT22;19510;54.486;9.046;2023-02-15T01:40:06;3.60;99.90
16838;DHT22;19510;54.486;9.046;2023-02-15T01:42:33;3.60;99.90
16838;DHT22;19510;54.486;9.046;2023-02-15T01:45:20;3.50;99.90
16838;DHT22;19510;54.486;9.046;2023-02-15T01:50:41;3.50;99.90
16838;DHT22;19510;54.486;9.046;2023-02-15T01:53:18;3.50;99.90
16838;DHT22;19510;54.486;9.046;2023-02-15T01:58:17;3.50;99.90
16838;DHT22;19510;54.486;9.046;2023-02-15T02:00:43;3.50;99.90
16838;DHT22;19510;54.486;9.046;2023-02-15T02:03:10;3.50;99.90
16838;DHT22;19510;54.486;9.046;2023-02-15T02:05:39;3.40;99.90
16838;DHT22;19510;54.486;9.046;2023-02-15T02:08:08;3.40;99.90
16838;DHT22;19510;54.486;9.046;2023-02-15T02:10:38;3.40;99.90
16838;DHT22;19510;54.486;9.046;2023-02-15T02:13:06;3.40;99.90
16838;DHT22;19510;54.486;9.046;2023-02-15T02:15:40;3.40;99.90
16838;DHT22;19510;54.486;9.046;2023-02-15T02:18:32;3.40;99.90
16838;DHT22;19510;54.486;9.046;2023-02-15T02:21:47;3.40;99.90
16838;DHT22;19510;54.486;9.046;2023-02-15T02:29:49;3.40;99.90
16838;DHT22;19510;54.486;9.046;2023-02-15T02:38:02;3.30;99.90
16838;DHT22;19510;54.486;9.046;2023-02-15T02:46:20;3.20;99.90
16838;DHT22;19510;54.486;9.046;2023-02-15T02:48:50;3.20;99.90
16838;DHT22;19510;54.486;9.046;2023-02-15T02:51:16;3.20;99.90
16838;DHT22;19510;54.486;9.046;2023-02-15T02:53:49;3.20;99.90
16838;DHT22;19510;54.486;9.046;2023-02-15T02:56:36;3.20;99.90
16838;DHT22;19510;54.486;9.046;2023-02-15T02:59:06;3.20;99.90
16838;DHT22;19510;54.486;9.046;2023-02-15T03:01:54;3.10;99.90
16838;DHT22;19510;54.486;9.046;2023-02-15T03:04:32;3.20;99.90
16838;DHT22;19510;54.486;9.046;2023-02-15T03:07:07;3.20;99.90
16838;DHT22;19510;54.486;9.046;2023-02-15T03:09:37;3.20;99.90
16838;DHT22;19510;54.486;9.046;2023-02-15T03:12:33;3.20;99.90
16838;DHT22;19510;54.486;9.046;2023-02-15T03:15:06;3.20;99.90
16838;DHT22;19510;54.486;9.046;2023-02-15T03:17:39;3.20;99.90
16838;DHT22;19510;54.486;9.046;2023-02-15T03:20:30;3.20;99.90
16838;DHT22;19510;54.486;9.046;2023-02-15T03:23:01;3.10;99.90
16838;DHT22;19510;54.486;9.046;2023-02-15T03:25:34;3.10;99.90
16838;DHT22;19510;54.486;9.046;2023-02-15T03:28:03;3.10;99.90
16838;DHT22;19510;54.486;9.046;2023-02-15T03:30:31;3.10;99.90
16838;DHT22;19510;54.486;9.046;2023-02-15T03:33:01;3.10;99.90
16838;DHT22;19510;54.486;9.046;2023-02-15T03:38:09;3.10;99.90
16838;DHT22;19510;54.486;9.046;2023-02-15T03:40:38;3.10;99.90
16838;DHT22;19510;54.486;9.046;2023-02-15T03:43:44;3.10;99.90
16838;DHT22;19510;54.486;9.046;2023-02-15T03:46:31;3.10;99.90
16838;DHT22;19510;54.486;9.046;2023-02-15T03:49:37;3.10;99.90
16838;DHT22;19510;54.486;9.046;2023-02-15T03:51:56;3.10;99.90
16838;DHT22;19510;54.486;9.046;2023-02-15T03:54:28;3.20;99.90
16838;DHT22;19510;54.486;9.046;2023-02-15T03:57:27;3.20;99.90
16838;DHT22;19510;54.486;9.046;2023-02-15T04:00:21;3.20;99.90
16838;DHT22;19510;54.486;9.046;2023-02-15T04:05:34;3.10;99.90
16838;DHT22;19510;54.486;9.046;2023-02-15T04:08:02;3.10;99.90
16838;DHT22;19510;54.486;9.046;2023-02-15T04:10:30;3.10;99.90
16838;DHT22;19510;54.486;9.046;2023-02-15T04:13:16;3.10;99.90
16838;DHT22;19510;54.486;9.046;2023-02-15T04:15:44;3.10;99.90
16838;DHT22;19510;54.486;9.046;2023-02-15T04:18:29;3.10;99.90
16838;DHT22;19510;54.486;9.046;2023-02-15T04:21:13;3.10;99.90
16838;DHT22;19510;54.486;9.046;2023-02-15T04:23:57;3.10;99.90
16838;DHT22;19510;54.486;9.046;2023-02-15T04:26:44;3.10;99.90
16838;DHT22;19510;54.486;9.046;2023-02-15T04:29:10;3.10;99.90
16838;DHT22;19510;54.486;9.046;2023-02-15T04:31:43;3.10;99.90
16838;DHT22;19510;54.486;9.046;2023-02-15T04:34:11;3.10;99.90
16838;DHT22;19510;54.486;9.046;2023-02-15T04:36:38;3.10;99.90
16838;DHT22;19510;54.486;9.046;2023-02-15T04:39:04;3.10;99.90
16838;DHT22;19510;54.486;9.046;2023-02-15T04:41:33;3.00;99.90
16838;DHT22;19510;54.486;9.046;2023-02-15T04:43:59;3.00;99.90
16838;DHT22;19510;54.486;9.046;2023-02-15T04:46:28;3.00;99.90
16838;DHT22;19510;54.486;9.046;2023-02-15T04:48:57;3.00;99.90
16838;DHT22;19510;54.486;9.046;2023-02-15T04:51:25;2.90;99.90
16838;DHT22;19510;54.486;9.046;2023-02-15T04:53:51;3.00;99.90
16838;DHT22;19510;54.486;9.046;2023-02-15T04:56:20;3.00;99.90
16838;DHT22;19510;54.486;9.046;2023-02-15T04:58:48;2.90;99.90
16838;DHT22;19510;54.486;9.046;2023-02-15T05:01:19;3.00;99.90
16838;DHT22;19510;54.486;9.046;2023-02-15T05:03:44;2.90;99.90
16838;DHT22;19510;54.486;9.046;2023-02-15T05:06:12;2.90;99.90
16838;DHT22;19510;54.486;9.046;2023-02-15T05:08:40;2.90;99.90
16838;DHT22;19510;54.486;9.046;2023-02-15T05:11:08;2.80;99.90
16838;DHT22;19510;54.486;9.046;2023-02-15T05:13:36;2.80;99.90
16838;DHT22;19510;54.486;9.046;2023-02-15T05:16:06;2.80;99.90
16838;DHT22;19510;54.486;9.046;2023-02-15T05:18:37;2.80;99.90
16838;DHT22;19510;54.486;9.046;2023-02-15T05:21:05;2.80;99.90
16838;DHT22;19510;54.486;9.046;2023-02-15T05:23:30;2.80;99.90
16838;DHT22;19510;54.486;9.046;2023-02-15T05:25:56;2.70;99.90
16838;DHT22;19510;54.486;9.046;2023-02-15T05:28:41;2.80;99.90
16838;DHT22;19510;54.486;9.046;2023-02-15T05:33:37;2.80;99.90
16838;DHT22;19510;54.486;9.046;2023-02-15T05:36:06;2.80;99.90
16838;DHT22;19510;54.486;9.046;2023-02-15T05:38:34;2.80;99.90
16838;DHT22;19510;54.486;9.046;2023-02-15T05:41:06;2.80;99.90
16838;DHT22;19510;54.486;9.046;2023-02-15T05:43:36;2.70;99.90
16838;DHT22;19510;54.486;9.046;2023-02-15T05:46:06;2.60;99.90
16838;DHT22;19510;54.486;9.046;2023-02-15T05:48:35;2.70;99.90
16838;DHT22;19510;54.486;9.046;2023-02-15T05:51:06;2.70;99.90
16838;DHT22;19510;54.486;9.046;2023-02-15T05:53:35;2.60;99.90
16838;DHT22;19510;54.486;9.046;2023-02-15T05:56:09;2.60;99.90
16838;DHT22;19510;54.486;9.046;2023-02-15T05:58:41;2.60;99.90
16838;DHT22;19510;54.486;9.046;2023-02-15T06:01:15;2.60;99.90
16838;DHT22;19510;54.486;9.046;2023-02-15T06:03:43;2.60;99.90
16838;DHT22;19510;54.486;9.046;2023-02-15T06:06:09;2.60;99.90
16838;DHT22;19510;54.486;9.046;2023-02-15T06:08:37;2.50;99.90
16838;DHT22;19510;54.486;9.046;2023-02-15T06:11:06;2.40;99.90
16838;DHT22;19510;54.486;9.046;2023-02-15T06:13:33;2.40;99.90
16838;DHT22;19510;54.486;9.046;2023-02-15T06:15:59;2.50;99.90
16838;DHT22;19510;54.486;9.046;2023-02-15T06:18:27;2.40;99.90
16838;DHT22;19510;54.486;9.046;2023-02-15T06:20:53;2.40;99.90
16838;DHT22;19510;54.486;9.046;2023-02-15T06:23:18;2.40;99.90
16838;DHT22;19510;54.486;9.046;2023-02-15T06:25:46;2.40;99.90
16838;DHT22;19510;54.486;9.046;2023-02-15T06:28:12;2.40;99.90
16838;DHT22;19510;54.486;9.046;2023-02-15T06:30:38;2.40;99.90
16838;DHT22;19510;54.486;9.046;2023-02-15T06:33:04;2.40;99.90
16838;DHT22;19510;54.486;9.046;2023-02-15T06:35:30;2.40;99.90
16838;DHT22;19510;54.486;9.046;2023-02-15T06:37:55;2.40;99.90
16838;DHT22;19510;54.486;9.046;2023-02-15T06:40:21;2.40;99.90
16838;DHT22;19510;54.486;9.046;2023-02-15T06:42:47;2.40;99.90
16838;DHT22;19510;54.486;9.046;2023-02-15T06:45:13;2.40;99.90
16838;DHT22;19510;54.486;9.046;2023-02-15T06:47:41;2.40;99.90
16838;DHT22;19510;54.486;9.046;2023-02-15T06:50:07;2.40;99.90
16838;DHT22;19510;54.486;9.046;2023-02-15T06:52:41;2.40;99.90
16838;DHT22;19510;54.486;9.046;2023-02-15T06:55:07;2.40;99.90
16838;DHT22;19510;54.486;9.046;2023-02-15T06:57:33;2.40;99.90
16838;DHT22;19510;54.486;9.046;2023-02-15T06:59:59;2.50;99.90
16838;DHT22;19510;54.486;9.046;2023-02-15T07:02:25;2.40;99.90
16838;DHT22;19510;54.486;9.046;2023-02-15T07:04:50;2.40;99.90
16838;DHT22;19510;54.486;9.046;2023-02-15T07:07:18;2.40;99.90
16838;DHT22;19510;54.486;9.046;2023-02-15T07:09:44;2.40;99.90
16838;DHT22;19510;54.486;9.046;2023-02-15T07:12:14;2.40;99.90
16838;DHT22;19510;54.486;9.046;2023-02-15T07:14:59;2.40;99.90
16838;DHT22;19510;54.486;9.046;2023-02-15T07:17:25;2.40;99.90
16838;DHT22;19510;54.486;9.046;2023-02-15T07:19:54;2.40;99.90
16838;DHT22;19510;54.486;9.046;2023-02-15T07:22:20;2.50;99.90
16838;DHT22;19510;54.486;9.046;2023-02-15T07:24:48;2.50;99.90
16838;DHT22;19510;54.486;9.046;2023-02-15T07:27:14;2.50;99.90
16838;DHT22;19510;54.486;9.046;2023-02-15T07:29:40;2.50;99.90
16838;DHT22;19510;54.486;9.046;2023-02-15T07:32:10;2.50;99.90
16838;DHT22;19510;54.486;9.046;2023-02-15T07:34:40;2.50;99.90
16838;DHT22;19510;54.486;9.046;2023-02-15T07:37:06;2.50;99.90
16838;DHT22;19510;54.486;9.046;2023-02-15T07:39:34;2.50;99.90
16838;DHT22;19510;54.486;9.046;2023-02-15T07:42:00;2.50;99.90
16838;DHT22;19510;54.486;9.046;2023-02-15T07:44:31;2.50;99.90
16838;DHT22;19510;54.486;9.046;2023-02-15T07:46:59;2.60;99.90
16838;DHT22;19510;54.486;9.046;2023-02-15T07:49:28;2.60;99.90
16838;DHT22;19510;54.486;9.046;2023-02-15T07:51:55;2.60;99.90
16838;DHT22;19510;54.486;9.046;2023-02-15T07:54:21;2.60;99.90
16838;DHT22;19510;54.486;9.046;2023-02-15T07:56:52;2.60;99.90
16838;DHT22;19510;54.486;9.046;2023-02-15T07:59:20;2.70;99.90
16838;DHT22;19510;54.486;9.046;2023-02-15T08:01:46;2.60;99.90
16838;DHT22;19510;54.486;9.046;2023-02-15T08:04:12;2.60;99.90
16838;DHT22;19510;54.486;9.046;2023-02-15T08:06:42;2.60;99.90
16838;DHT22;19510;54.486;9.046;2023-02-15T08:09:13;2.60;99.90
16838;DHT22;19510;54.486;9.046;2023-02-15T08:11:39;2.60;99.90
16838;DHT22;19510;54.486;9.046;2023-02-15T08:14:19;2.50;99.90
16838;DHT22;19510;54.486;9.046;2023-02-15T08:16:52;2.60;99.90
16838;DHT22;19510;54.486;9.046;2023-02-15T08:19:27;2.60;99.90
16838;DHT22;19510;54.486;9.046;2023-02-15T08:21:55;2.60;99.90
16838;DHT22;19510;54.486;9.046;2023-02-15T08:24:32;2.60;99.90
16838;DHT22;19510;54.486;9.046;2023-02-15T08:26:58;2.60;99.90
16838;DHT22;19510;54.486;9.046;2023-02-15T08:29:30;2.70;99.90
16838;DHT22;19510;54.486;9.046;2023-02-15T08:32:05;2.60;99.90
16838;DHT22;19510;54.486;9.046;2023-02-15T08:34:33;2.50;99.90
16838;DHT22;19510;54.486;9.046;2023-02-15T08:37:02;2.50;99.90
16838;DHT22;19510;54.486;9.046;2023-02-15T08:39:30;2.50;99.90
16838;DHT22;19510;54.486;9.046;2023-02-15T08:41:59;2.60;99.90
16838;DHT22;19510;54.486;9.046;2023-02-15T08:44:27;2.60;99.90
16838;DHT22;19510;54.486;9.046;2023-02-15T08:46:54;2.60;99.90
16838;DHT22;19510;54.486;9.046;2023-02-15T08:49:22;2.60;99.90
16838;DHT22;19510;54.486;9.046;2023-02-15T08:51:50;2.60;99.90
16838;DHT22;19510;54.486;9.046;2023-02-15T08:54:18;2.50;99.90
16838;DHT22;19510;54.486;9.046;2023-02-15T08:56:49;2.60;99.90
16838;DHT22;19510;54.486;9.046;2023-02-15T08:59:20;2.70;99.90
16838;DHT22;19510;54.486;9.046;2023-02-15T09:01:49;2.60;99.90
16838;DHT22;19510;54.486;9.046;2023-02-15T09:04:18;2.70;99.90
16838;DHT22;19510;54.486;9.046;2023-02-15T09:06:47;2.70;99.90
16838;DHT22;19510;54.486;9.046;2023-02-15T09:09:14;2.70;99.90
16838;DHT22;19510;54.486;9.046;2023-02-15T09:11:50;2.70;99.90
16838;DHT22;19510;54.486;9.046;2023-02-15T09:14:19;2.80;99.90
16838;DHT22;19510;54.486;9.046;2023-02-15T09:16:47;2.90;99.90
16838;DHT22;19510;54.486;9.046;2023-02-15T09:19:14;2.90;99.90
16838;DHT22;19510;54.486;9.046;2023-02-15T09:21:43;3.00;99.90
16838;DHT22;19510;54.486;9.046;2023-02-15T09:24:13;3.00;99.90
16838;DHT22;19510;54.486;9.046;2023-02-15T09:26:41;3.00;99.90
16838;DHT22;19510;54.486;9.046;2023-02-15T09:29:09;3.00;99.90
16838;DHT22;19510;54.486;9.046;2023-02-15T09:31:55;3.00;99.90
16838;DHT22;19510;54.486;9.046;2023-02-15T09:34:22;3.10;99.90
16838;DHT22;19510;54.486;9.046;2023-02-15T09:36:53;3.10;99.90
16838;DHT22;19510;54.486;9.046;2023-02-15T09:39:25;3.20;99.90
16838;DHT22;19510;54.486;9.046;2023-02-15T09:45:23;3.20;99.90
16838;DHT22;19510;54.486;9.046;2023-02-15T09:53:37;3.20;99.90
16838;DHT22;19510;54.486;9.046;2023-02-15T10:13:12;3.40;99.90
16838;DHT22;19510;54.486;9.046;2023-02-15T10:16:09;3.40;99.90
16838;DHT22;19510;54.486;9.046;2023-02-15T10:27:20;3.60;99.90
16838;DHT22;19510;54.486;9.046;2023-02-15T10:30:15;3.70;99.90
16838;DHT22;19510;54.486;9.046;2023-02-15T10:32:52;3.80;99.90
16838;DHT22;19510;54.486;9.046;2023-02-15T10:35:22;3.90;99.90
16838;DHT22;19510;54.486;9.046;2023-02-15T10:48:40;4.00;99.90
16838;DHT22;19510;54.486;9.046;2023-02-15T10:54:12;4.10;99.90
16838;DHT22;19510;54.486;9.046;2023-02-15T11:02:13;4.20;99.90
16838;DHT22;19510;54.486;9.046;2023-02-15T11:05:18;4.30;99.90
16838;DHT22;19510;54.486;9.046;2023-02-15T11:07:49;4.30;99.90
16838;DHT22;19510;54.486;9.046;2023-02-15T11:10:32;4.30;99.90
16838;DHT22;19510;54.486;9.046;2023-02-15T11:13:05;4.40;99.90
16838;DHT22;19510;54.486;9.046;2023-02-15T11:15:39;4.40;99.90
16838;DHT22;19510;54.486;9.046;2023-02-15T11:18:13;4.40;99.90
16838;DHT22;19510;54.486;9.046;2023-02-15T11:21:08;4.40;99.90
16838;DHT22;19510;54.486;9.046;2023-02-15T11:23:41;4.40;99.90
16838;DHT22;19510;54.486;9.046;2023-02-15T11:26:33;4.50;99.90
16838;DHT22;19510;54.486;9.046;2023-02-15T11:29:01;4.50;99.90
16838;DHT22;19510;54.486;9.046;2023-02-15T11:34:36;4.60;99.90
16838;DHT22;19510;54.486;9.046;2023-02-15T11:37:18;4.60;99.90
16838;DHT22;19510;54.486;9.046;2023-02-15T11:39:45;4.60;99.90
16838;DHT22;19510;54.486;9.046;2023-02-15T11:42:20;4.60;99.90
16838;DHT22;19510;54.486;9.046;2023-02-15T11:47:24;4.70;99.90
16838;DHT22;19510;54.486;9.046;2023-02-15T11:49:49;4.70;99.90
16838;DHT22;19510;54.486;9.046;2023-02-15T11:52:18;4.70;99.90
16838;DHT22;19510;54.486;9.046;2023-02-15T11:54:47;4.80;99.90
16838;DHT22;19510;54.486;9.046;2023-02-15T11:57:28;4.80;99.90
16838;DHT22;19510;54.486;9.046;2023-02-15T12:02:54;4.90;99.90
16838;DHT22;19510;54.486;9.046;2023-02-15T12:05:25;4.90;99.90
16838;DHT22;19510;54.486;9.046;2023-02-15T12:08:05;4.90;99.90
16838;DHT22;19510;54.486;9.046;2023-02-15T12:10:40;4.90;99.90
16838;DHT22;19510;54.486;9.046;2023-02-15T12:13:18;4.90;99.90
16838;DHT22;19510;54.486;9.046;2023-02-15T12:15:52;5.00;99.90
16838;DHT22;19510;54.486;9.046;2023-02-15T12:18:31;5.00;99.90
16838;DHT22;19510;54.486;9.046;2023-02-15T12:21:03;5.00;99.90
16838;DHT22;19510;54.486;9.046;2023-02-15T12:23:30;5.00;99.90
16838;DHT22;19510;54.486;9.046;2023-02-15T12:25:59;5.00;99.90
16838;DHT22;19510;54.486;9.046;2023-02-15T12:31:09;5.10;99.90
16838;DHT22;19510;54.486;9.046;2023-02-15T12:33:44;5.10;99.90
16838;DHT22;19510;54.486;9.046;2023-02-15T12:38:41;5.20;99.90
16838;DHT22;19510;54.486;9.046;2023-02-15T12:41:33;5.20;99.90
16838;DHT22;19510;54.486;9.046;2023-02-15T12:44:09;5.20;99.90
16838;DHT22;19510;54.486;9.046;2023-02-15T12:47:06;5.30;99.90
16838;DHT22;19510;54.486;9.046;2023-02-15T12:49:34;5.40;99.90
16838;DHT22;19510;54.486;9.046;2023-02-15T12:52:02;5.40;99.90
16838;DHT22;19510;54.486;9.046;2023-02-15T12:54:35;5.40;99.90
16838;DHT22;19510;54.486;9.046;2023-02-15T12:59:55;5.40;99.90
16838;DHT22;19510;54.486;9.046;2023-02-15T13:02:42;5.50;99.90
16838;DHT22;19510;54.486;9.046;2023-02-15T13:07:56;5.50;99.90
16838;DHT22;19510;54.486;9.046;2023-02-15T13:13:19;5.60;99.90
16838;DHT22;19510;54.486;9.046;2023-02-15T13:15:54;5.50;99.90
16838;DHT22;19510;54.486;9.046;2023-02-15T13:18:38;5.50;99.90
16838;DHT22;19510;54.486;9.046;2023-02-15T13:21:15;5.50;99.90
16838;DHT22;19510;54.486;9.046;2023-02-15T13:23:52;5.60;99.90
16838;DHT22;19510;54.486;9.046;2023-02-15T13:26:23;5.60;99.90
16838;DHT22;19510;54.486;9.046;2023-02-15T13:28:55;5.60;99.90
16838;DHT22;19510;54.486;9.046;2023-02-15T13:31:25;5.70;99.90
16838;DHT22;19510;54.486;9.046;2023-02-15T13:34:20;5.70;99.90
16838;DHT22;19510;54.486;9.046;2023-02-15T14:04:01;6.00;99.90
16838;DHT22;19510;54.486;9.046;2023-02-15T14:31:53;6.10;99.90
16838;DHT22;19510;54.486;9.046;2023-02-15T14:34:43;6.00;99.90
16838;DHT22;19510;54.486;9.046;2023-02-15T14:37:12;6.00;99.90
16838;DHT22;19510;54.486;9.046;2023-02-15T14:40:08;6.00;99.90
16838;DHT22;19510;54.486;9.046;2023-02-15T14:43:06;6.00;99.90
16838;DHT22;19510;54.486;9.046;2023-02-15T14:45:52;6.00;99.90
16838;DHT22;19510;54.486;9.046;2023-02-15T14:54:55;6.10;99.90
16838;DHT22;19510;54.486;9.046;2023-02-15T15:03:02;6.10;99.90
16838;DHT22;19510;54.486;9.046;2023-02-15T15:05:23;6.10;99.90
16838;DHT22;19510;54.486;9.046;2023-02-15T15:07:54;6.10;99.90
16838;DHT22;19510;54.486;9.046;2023-02-15T15:49:38;5.90;99.90
16838;DHT22;19510;54.486;9.046;2023-02-15T15:52:22;5.90;99.90
16838;DHT22;19510;54.486;9.046;2023-02-15T15:54:56;5.90;99.90
16838;DHT22;19510;54.486;9.046;2023-02-15T15:57:30;5.80;99.90
16838;DHT22;19510;54.486;9.046;2023-02-15T15:59:58;5.80;99.90
16838;DHT22;19510;54.486;9.046;2023-02-15T16:02:27;5.80;99.90
16838;DHT22;19510;54.486;9.046;2023-02-15T16:04:53;5.70;99.90
16838;DHT22;19510;54.486;9.046;2023-02-15T16:12:20;5.70;99.90
16838;DHT22;19510;54.486;9.046;2023-02-15T16:14:46;5.70;99.90
16838;DHT22;19510;54.486;9.046;2023-02-15T16:17:25;5.70;99.90
16838;DHT22;19510;54.486;9.046;2023-02-15T16:19:52;5.70;99.90
16838;DHT22;19510;54.486;9.046;2023-02-15T16:28:31;5.60;99.90
16838;DHT22;19510;54.486;9.046;2023-02-15T16:31:16;5.70;99.90
16838;DHT22;19510;54.486;9.046;2023-02-15T16:33:43;5.70;99.90
16838;DHT22;19510;54.486;9.046;2023-02-15T16:36:28;5.70;99.90
16838;DHT22;19510;54.486;9.046;2023-02-15T16:41:32;5.60;99.90
16838;DHT22;19510;54.486;9.046;2023-02-15T16:44:03;5.60;99.90
16838;DHT22;19510;54.486;9.046;2023-02-15T16:46:35;5.60;99.90
16838;DHT22;19510;54.486;9.046;2023-02-15T16:49:08;5.60;99.90
16838;DHT22;19510;54.486;9.046;2023-02-15T16:51:42;5.60;99.90
16838;DHT22;19510;54.486;9.046;2023-02-15T16:54:19;5.60;99.90
16838;DHT22;19510;54.486;9.046;2023-02-15T16:56:47;5.60;99.90
16838;DHT22;19510;54.486;9.046;2023-02-15T16:59:39;5.60;99.90
16838;DHT22;19510;54.486;9.046;2023-02-15T17:02:32;5.60;99.90
16838;DHT22;19510;54.486;9.046;2023-02-15T17:07:27;5.60;99.90
16838;DHT22;19510;54.486;9.046;2023-02-15T17:09:59;5.60;99.90
16838;DHT22;19510;54.486;9.046;2023-02-15T17:12:56;5.60;99.90
16838;DHT22;19510;54.486;9.046;2023-02-15T17:18:14;5.50;99.90
16838;DHT22;19510;54.486;9.046;2023-02-15T17:20:41;5.50;99.90
16838;DHT22;19510;54.486;9.046;2023-02-15T17:25:57;5.50;99.90
16838;DHT22;19510;54.486;9.046;2023-02-15T17:28:28;5.50;99.90
16838;DHT22;19510;54.486;9.046;2023-02-15T17:30:58;5.50;99.90
16838;DHT22;19510;54.486;9.046;2023-02-15T17:33:37;5.40;99.90
16838;DHT22;19510;54.486;9.046;2023-02-15T17:36:16;5.40;99.90
16838;DHT22;19510;54.486;9.046;2023-02-15T17:39:20;5.40;99.90
16838;DHT22;19510;54.486;9.046;2023-02-15T17:41:51;5.30;99.90
16838;DHT22;19510;54.486;9.046;2023-02-15T17:44:21;5.30;99.90
16838;DHT22;19510;54.486;9.046;2023-02-15T17:46:52;5.30;99.90
16838;DHT22;19510;54.486;9.046;2023-02-15T17:49:26;5.30;99.90
16838;DHT22;19510;54.486;9.046;2023-02-15T17:52:00;5.30;99.90
16838;DHT22;19510;54.486;9.046;2023-02-15T17:54:26;5.30;99.90
16838;DHT22;19510;54.486;9.046;2023-02-15T17:57:17;5.30;99.90
16838;DHT22;19510;54.486;9.046;2023-02-15T17:59:42;5.30;99.90
16838;DHT22;19510;54.486;9.046;2023-02-15T18:02:33;5.20;99.90
16838;DHT22;19510;54.486;9.046;2023-02-15T18:05:18;5.20;99.90
16838;DHT22;19510;54.486;9.046;2023-02-15T18:08:12;5.20;99.90
16838;DHT22;19510;54.486;9.046;2023-02-15T18:11:00;5.10;99.90
16838;DHT22;19510;54.486;9.046;2023-02-15T18:13:44;5.10;99.90
16838;DHT22;19510;54.486;9.046;2023-02-15T18:16:18;5.10;99.90
16838;DHT22;19510;54.486;9.046;2023-02-15T18:18:44;5.00;99.90
16838;DHT22;19510;54.486;9.046;2023-02-15T18:21:11;5.00;99.90
16838;DHT22;19510;54.486;9.046;2023-02-15T18:23:41;5.00;99.90
16838;DHT22;19510;54.486;9.046;2023-02-15T18:26:11;5.00;99.90
16838;DHT22;19510;54.486;9.046;2023-02-15T18:28:40;5.00;99.90
16838;DHT22;19510;54.486;9.046;2023-02-15T18:31:09;5.00;99.90
16838;DHT22;19510;54.486;9.046;2023-02-15T18:33:47;5.10;99.90
16838;DHT22;19510;54.486;9.046;2023-02-15T18:36:26;5.00;99.90
16838;DHT22;19510;54.486;9.046;2023-02-15T18:38:56;5.00;99.90
16838;DHT22;19510;54.486;9.046;2023-02-15T18:41:22;5.00;99.90
16838;DHT22;19510;54.486;9.046;2023-02-15T18:43:51;5.00;99.90
16838;DHT22;19510;54.486;9.046;2023-02-15T18:46:19;5.00;99.90
16838;DHT22;19510;54.486;9.046;2023-02-15T18:48:50;5.00;99.90
16838;DHT22;19510;54.486;9.046;2023-02-15T18:51:22;5.00;99.90
16838;DHT22;19510;54.486;9.046;2023-02-15T18:53:51;5.00;99.90
16838;DHT22;19510;54.486;9.046;2023-02-15T18:56:20;5.00;99.90
16838;DHT22;19510;54.486;9.046;2023-02-15T18:58:46;5.00;99.90
16838;DHT22;19510;54.486;9.046;2023-02-15T19:01:18;4.90;99.90
16838;DHT22;19510;54.486;9.046;2023-02-15T19:03:49;4.90;99.90
16838;DHT22;19510;54.486;9.046;2023-02-15T19:06:19;4.90;99.90
16838;DHT22;19510;54.486;9.046;2023-02-15T19:08:50;4.90;99.90
16838;DHT22;19510;54.486;9.046;2023-02-15T19:11:18;4.90;99.90
16838;DHT22;19510;54.486;9.046;2023-02-15T19:13:48;4.90;99.90
16838;DHT22;19510;54.486;9.046;2023-02-15T19:16:36;4.90;99.90
16838;DHT22;19510;54.486;9.046;2023-02-15T19:19:02;4.80;99.90
16838;DHT22;19510;54.486;9.046;2023-02-15T19:21:29;4.80;99.90
16838;DHT22;19510;54.486;9.046;2023-02-15T19:24:00;4.80;99.90
16838;DHT22;19510;54.486;9.046;2023-02-15T19:26:30;4.80;99.90
16838;DHT22;19510;54.486;9.046;2023-02-15T19:29:00;4.80;99.90
16838;DHT22;19510;54.486;9.046;2023-02-15T19:31:29;4.80;99.90
16838;DHT22;19510;54.486;9.046;2023-02-15T19:33:54;4.80;99.90
16838;DHT22;19510;54.486;9.046;2023-02-15T19:36:20;4.80;99.90
16838;DHT22;19510;54.486;9.046;2023-02-15T19:38:51;4.80;99.90
16838;DHT22;19510;54.486;9.046;2023-02-15T19:41:30;4.80;99.90
16838;DHT22;19510;54.486;9.046;2023-02-15T19:44:00;4.80;99.90
16838;DHT22;19510;54.486;9.046;2023-02-15T19:46:25;4.80;99.90
16838;DHT22;19510;54.486;9.046;2023-02-15T19:48:52;4.80;99.90
16838;DHT22;19510;54.486;9.046;2023-02-15T19:51:19;4.80;99.90
16838;DHT22;19510;54.486;9.046;2023-02-15T19:53:47;4.80;99.90
16838;DHT22;19510;54.486;9.046;2023-02-15T19:56:20;4.80;99.90
16838;DHT22;19510;54.486;9.046;2023-02-15T19:58:46;4.80;99.90
16838;DHT22;19510;54.486;9.046;2023-02-15T20:01:14;4.80;99.90
16838;DHT22;19510;54.486;9.046;2023-02-15T20:03:40;4.70;99.90
16838;DHT22;19510;54.486;9.046;2023-02-15T20:06:08;4.70;99.90
16838;DHT22;19510;54.486;9.046;2023-02-15T20:08:35;4.70;99.90
16838;DHT22;19510;54.486;9.046;2023-02-15T20:11:00;4.70;99.90